CheckWX is a tool to help pilots better visualize weather data.  It is not intended as a substitute for an official pre-flight weather briefing.

13:52:47 UTC

KTRK TAF
Truckee-Tahoe Airport
Truckee, California, USA
KTRK 291741Z 2918/3018 19007KT P6SM FEW060 SCT180 FM292000 23011G18KT P6SM FEW070 SCT110 BKN160 FM300000 25009KT P6SM VCSH SCT070 BKN120 FM301000 VRB05KT P6SM VCTS SCT060CB BKN100 FM301500 21012G22KT P6SM -SHRA VCTS SCT040CB BKN080

May-29@
18:00 UTC

May-29 @ 18:00 UTC

May-29@
20:00 UTC

May-29 @ 20:00 UTC

TAF KTRK 291741Z 2918/3018 19007KT P6SM FEW060 SCT180

Expired

Wind
  • 190° at 7 KTS
Cloud Levels
  • Few at 6,000' AGL
  • Scattered at 18,000' AGL

May-29@
20:00 UTC

May-29 @ 20:00 UTC

May-30@
00:00 UTC

May-30 @ 00:00 UTC

FM292000 23011G18KT P6SM FEW070 SCT110 BKN160

Expired

Wind
  • 230° at 11 KTS
  • {Gusting to 18 KTS
Cloud Levels
  • Few at 7,000' AGL
  • Scattered at 11,000' AGL
  • Broken at 16,000' AGL

May-30@
00:00 UTC

May-30 @ 00:00 UTC

May-30@
10:00 UTC

May-30 @ 10:00 UTC

FM300000 25009KT P6SM VCSH SCT070 BKN120

Expired

Wind
  • 250° at 9 KTS
Conditions
Area Showers
Cloud Levels
  • Scattered at 7,000' AGL
  • Broken at 12,000' AGL

May-30@
10:00 UTC

May-30 @ 10:00 UTC

May-30@
15:00 UTC

May-30 @ 15:00 UTC

FM301000 VRB05KT P6SM VCTS SCT060CB BKN100

From

From Standard forecast or significant change

Wind
  • Variable at 5 KTS
Conditions
Area Thunderstorm
Cloud Levels
  • Scattered at 6,000' AGL
  • Broken at 10,000' AGL

May-30@
15:00 UTC

May-30 @ 15:00 UTC

May-30@
18:00 UTC

May-30 @ 18:00 UTC

FM301500 21012G22KT P6SM -SHRA VCTS SCT040CB BKN080

From

From Standard forecast or significant change

Wind
  • 210° at 12 KTS
  • {Gusting to 22 KTS
Conditions
Light Showers, Rain, Area Thunderstorm
Cloud Levels
  • Scattered at 4,000' AGL
  • Broken at 8,000' AGL